sensor_id;sensor_type;location;lat;lon;timestamp;pressure;altitude;pressure_sealevel;temperature;humidity
45793;BME280;31495;42.740;22.908;2023-05-10T00:00:03;93245.13;;;9.47;83.55
45793;BME280;31495;42.740;22.908;2023-05-10T00:01:03;93280.88;;;9.64;83.86
45793;BME280;31495;42.740;22.908;2023-05-10T00:02:03;93282.28;;;9.60;83.76
45793;BME280;31495;42.740;22.908;2023-05-10T00:03:02;93283.25;;;9.72;83.88
45793;BME280;31495;42.740;22.908;2023-05-10T00:04:04;93286.66;;;9.79;83.60
45793;BME280;31495;42.740;22.908;2023-05-10T00:05:04;93270.34;;;9.65;83.42
45793;BME280;31495;42.740;22.908;2023-05-10T00:06:04;93252.28;;;9.52;83.63
45793;BME280;31495;42.740;22.908;2023-05-10T00:07:03;93276.53;;;9.64;83.64
45793;BME280;31495;42.740;22.908;2023-05-10T00:08:03;93239.75;;;9.49;83.44
45793;BME280;31495;42.740;22.908;2023-05-10T00:09:02;93265.56;;;9.69;82.89
45793;BME280;31495;42.740;22.908;2023-05-10T00:10:03;93242.75;;;9.46;83.26
45793;BME280;31495;42.740;22.908;2023-05-10T00:11:02;93270.75;;;9.62;83.64
45793;BME280;31495;42.740;22.908;2023-05-10T00:12:02;93267.19;;;9.50;84.31
45793;BME280;31495;42.740;22.908;2023-05-10T00:13:01;93244.53;;;9.45;84.06
45793;BME280;31495;42.740;22.908;2023-05-10T00:14:00;93214.53;;;9.31;83.92
45793;BME280;31495;42.740;22.908;2023-05-10T00:15:00;93251.69;;;9.56;83.59
45793;BME280;31495;42.740;22.908;2023-05-10T00:15:59;93264.19;;;9.66;83.60
45793;BME280;31495;42.740;22.908;2023-05-10T00:16:59;93272.34;;;9.70;83.29
45793;BME280;31495;42.740;22.908;2023-05-10T00:17:58;93233.63;;;9.43;83.53
45793;BME280;31495;42.740;22.908;2023-05-10T00:18:57;93270.16;;;9.67;83.44
45793;BME280;31495;42.740;22.908;2023-05-10T00:19:57;93247.31;;;9.50;83.19
45793;BME280;31495;42.740;22.908;2023-05-10T00:20:56;93220.31;;;9.40;83.23
45793;BME280;31495;42.740;22.908;2023-05-10T00:21:55;93247.50;;;9.55;83.00
45793;BME280;31495;42.740;22.908;2023-05-10T00:22:55;93209.56;;;9.36;83.11
45793;BME280;31495;42.740;22.908;2023-05-10T00:23:54;93200.06;;;9.30;83.05
45793;BME280;31495;42.740;22.908;2023-05-10T00:24:54;93227.03;;;9.47;83.14
45793;BME280;31495;42.740;22.908;2023-05-10T00:25:54;93222.06;;;9.46;83.40
45793;BME280;31495;42.740;22.908;2023-05-10T00:26:53;93212.56;;;9.40;83.14
45793;BME280;31495;42.740;22.908;2023-05-10T00:27:52;93252.84;;;9.61;83.59
45793;BME280;31495;42.740;22.908;2023-05-10T00:28:54;93234.78;;;9.54;83.54
45793;BME280;31495;42.740;22.908;2023-05-10T00:29:53;93218.53;;;9.33;83.65
45793;BME280;31495;42.740;22.908;2023-05-10T00:30:53;93269.75;;;9.63;83.59
45793;BME280;31495;42.740;22.908;2023-05-10T00:31:52;93246.13;;;9.53;83.54
45793;BME280;31495;42.740;22.908;2023-05-10T00:32:51;93241.75;;;9.47;83.47
45793;BME280;31495;42.740;22.908;2023-05-10T00:33:51;93257.44;;;9.52;84.06
45793;BME280;31495;42.740;22.908;2023-05-10T00:34:50;93250.88;;;9.49;84.22
45793;BME280;31495;42.740;22.908;2023-05-10T00:35:50;93237.97;;;9.49;84.07
45793;BME280;31495;42.740;22.908;2023-05-10T00:36:50;93255.25;;;9.49;84.32
45793;BME280;31495;42.740;22.908;2023-05-10T00:37:49;93228.84;;;9.33;84.36
45793;BME280;31495;42.740;22.908;2023-05-10T00:38:48;93208.00;;;9.28;84.32
45793;BME280;31495;42.740;22.908;2023-05-10T00:39:48;93255.25;;;9.62;83.99
45793;BME280;31495;42.740;22.908;2023-05-10T00:40:47;93199.44;;;9.21;83.77
45793;BME280;31495;42.740;22.908;2023-05-10T00:41:47;93254.66;;;9.67;83.65
45793;BME280;31495;42.740;22.908;2023-05-10T00:42:46;93243.53;;;9.66;83.48
45793;BME280;31495;42.740;22.908;2023-05-10T00:43:45;93244.13;;;9.68;83.14
45793;BME280;31495;42.740;22.908;2023-05-10T00:44:45;93195.28;;;9.33;83.41
45793;BME280;31495;42.740;22.908;2023-05-10T00:45:46;93255.25;;;9.82;82.87
45793;BME280;31495;42.740;22.908;2023-05-10T00:46:46;93249.06;;;9.77;82.99
45793;BME280;31495;42.740;22.908;2023-05-10T00:47:47;93237.16;;;9.69;83.12
45793;BME280;31495;42.740;22.908;2023-05-10T00:48:46;93216.09;;;9.59;83.15
45793;BME280;31495;42.740;22.908;2023-05-10T00:49:46;93181.59;;;9.40;83.37
45793;BME280;31495;42.740;22.908;2023-05-10T00:50:45;93216.31;;;9.50;83.07
45793;BME280;31495;42.740;22.908;2023-05-10T00:51:45;93206.56;;;9.52;82.73
45793;BME280;31495;42.740;22.908;2023-05-10T00:52:45;93217.31;;;9.56;82.57
45793;BME280;31495;42.740;22.908;2023-05-10T00:53:45;93248.88;;;9.78;82.80
45793;BME280;31495;42.740;22.908;2023-05-10T00:54:45;93230.41;;;9.68;82.66
45793;BME280;31495;42.740;22.908;2023-05-10T00:55:45;93217.91;;;9.58;82.56
45793;BME280;31495;42.740;22.908;2023-05-10T00:56:45;93249.25;;;9.75;82.65
45793;BME280;31495;42.740;22.908;2023-05-10T00:57:48;93225.25;;;9.68;82.03
45793;BME280;31495;42.740;22.908;2023-05-10T00:58:47;93221.06;;;9.67;82.08
45793;BME280;31495;42.740;22.908;2023-05-10T00:59:47;93233.97;;;9.73;82.36
45793;BME280;31495;42.740;22.908;2023-05-10T01:00:47;93218.09;;;9.63;82.68
45793;BME280;31495;42.740;22.908;2023-05-10T01:01:47;93260.78;;;9.86;82.85
45793;BME280;31495;42.740;22.908;2023-05-10T01:02:47;93243.50;;;9.80;82.97
45793;BME280;31495;42.740;22.908;2023-05-10T01:03:48;93250.44;;;9.92;82.44
45793;BME280;31495;42.740;22.908;2023-05-10T01:04:48;93181.59;;;9.40;82.15
45793;BME280;31495;42.740;22.908;2023-05-10T01:05:49;93248.06;;;9.91;82.36
45793;BME280;31495;42.740;22.908;2023-05-10T01:06:49;93213.91;;;9.62;82.40
45793;BME280;31495;42.740;22.908;2023-05-10T01:07:48;93223.03;;;9.71;82.13
45793;BME280;31495;42.740;22.908;2023-05-10T01:08:48;93213.53;;;9.59;82.20
45793;BME280;31495;42.740;22.908;2023-05-10T01:09:47;93220.66;;;9.70;82.25
45793;BME280;31495;42.740;22.908;2023-05-10T01:10:46;93236.72;;;9.79;82.17
45793;BME280;31495;42.740;22.908;2023-05-10T01:11:48;93217.09;;;9.71;81.87
45793;BME280;31495;42.740;22.908;2023-05-10T01:12:48;93222.47;;;9.69;82.02
45793;BME280;31495;42.740;22.908;2023-05-10T01:13:54;93219.06;;;9.69;81.59
45793;BME280;31495;42.740;22.908;2023-05-10T01:14:55;93214.72;;;9.63;81.98
45793;BME280;31495;42.740;22.908;2023-05-10T01:15:55;93198.44;;;9.49;82.01
45793;BME280;31495;42.740;22.908;2023-05-10T01:16:55;93233.56;;;9.70;82.16
45793;BME280;31495;42.740;22.908;2023-05-10T01:17:55;93228.22;;;9.71;82.31
45793;BME280;31495;42.740;22.908;2023-05-10T01:18:55;93224.25;;;9.49;82.82
45793;BME280;31495;42.740;22.908;2023-05-10T01:19:54;93217.94;;;9.45;82.92
45793;BME280;31495;42.740;22.908;2023-05-10T01:21:27;93241.53;;;9.68;82.88
45793;BME280;31495;42.740;22.908;2023-05-10T01:23:57;93210.16;;;9.51;82.59
45793;BME280;31495;42.740;22.908;2023-05-10T01:34:20;93225.84;;;9.63;81.74
45793;BME280;31495;42.740;22.908;2023-05-10T01:36:43;93239.50;;;9.77;81.48
45793;BME280;31495;42.740;22.908;2023-05-10T01:39:39;93187.72;;;9.45;81.43
45793;BME280;31495;42.740;22.908;2023-05-10T01:42:10;93229.41;;;9.69;81.50
45793;BME280;31495;42.740;22.908;2023-05-10T01:43:17;93200.03;;;9.50;81.66
45793;BME280;31495;42.740;22.908;2023-05-10T01:44:31;93215.53;;;9.56;81.52
45793;BME280;31495;42.740;22.908;2023-05-10T01:46:05;93207.56;;;9.58;81.94
45793;BME280;31495;42.740;22.908;2023-05-10T01:47:16;93225.63;;;9.71;81.80
45793;BME280;31495;42.740;22.908;2023-05-10T01:48:17;93208.56;;;9.57;81.79
45793;BME280;31495;42.740;22.908;2023-05-10T01:49:26;93201.22;;;9.47;81.97
45793;BME280;31495;42.740;22.908;2023-05-10T01:50:29;93215.31;;;9.58;81.84
45793;BME280;31495;42.740;22.908;2023-05-10T01:51:39;93204.41;;;9.56;81.43
45793;BME280;31495;42.740;22.908;2023-05-10T01:52:42;93232.97;;;9.74;81.42
45793;BME280;31495;42.740;22.908;2023-05-10T01:53:46;93164.50;;;9.32;81.56
45793;BME280;31495;42.740;22.908;2023-05-10T01:54:55;93230.22;;;9.69;81.29
45793;BME280;31495;42.740;22.908;2023-05-10T01:55:56;93206.19;;;9.55;81.52
45793;BME280;31495;42.740;22.908;2023-05-10T01:57:01;93233.97;;;9.73;80.86
45793;BME280;31495;42.740;22.908;2023-05-10T01:58:07;93196.25;;;9.46;81.02
45793;BME280;31495;42.740;22.908;2023-05-10T01:59:12;93212.75;;;9.45;80.72
45793;BME280;31495;42.740;22.908;2023-05-10T02:00:14;93209.16;;;9.46;81.09
45793;BME280;31495;42.740;22.908;2023-05-10T02:01:15;93222.88;;;9.53;81.16
45793;BME280;31495;42.740;22.908;2023-05-10T02:02:17;93231.78;;;9.64;81.01
45793;BME280;31495;42.740;22.908;2023-05-10T02:03:20;93227.44;;;9.64;81.00
45793;BME280;31495;42.740;22.908;2023-05-10T02:04:21;93197.66;;;9.48;81.13
45793;BME280;31495;42.740;22.908;2023-05-10T02:05:24;93193.47;;;9.41;81.30
45793;BME280;31495;42.740;22.908;2023-05-10T02:06:24;93202.22;;;9.33;81.31
45793;BME280;31495;42.740;22.908;2023-05-10T02:07:26;93180.78;;;9.26;81.54
45793;BME280;31495;42.740;22.908;2023-05-10T02:08:27;93199.84;;;9.38;81.45
45793;BME280;31495;42.740;22.908;2023-05-10T02:09:29;93195.69;;;9.37;81.17
45793;BME280;31495;42.740;22.908;2023-05-10T02:10:29;93217.09;;;9.51;80.94
45793;BME280;31495;42.740;22.908;2023-05-10T02:11:29;93218.69;;;9.52;81.44
45793;BME280;31495;42.740;22.908;2023-05-10T02:12:32;93149.63;;;9.07;80.82
45793;BME280;31495;42.740;22.908;2023-05-10T02:13:36;93211.94;;;9.44;80.63
45793;BME280;31495;42.740;22.908;2023-05-10T02:14:39;93193.50;;;9.27;80.67
45793;BME280;31495;42.740;22.908;2023-05-10T02:15:41;93227.66;;;9.56;80.73
45793;BME280;31495;42.740;22.908;2023-05-10T02:16:42;93201.44;;;9.39;81.07
45793;BME280;31495;42.740;22.908;2023-05-10T02:17:43;93168.69;;;9.19;81.28
45793;BME280;31495;42.740;22.908;2023-05-10T02:18:43;93187.53;;;9.33;81.02
45793;BME280;31495;42.740;22.908;2023-05-10T02:19:47;93200.06;;;9.36;81.08
45793;BME280;31495;42.740;22.908;2023-05-10T02:20:46;93191.28;;;9.37;81.30
45793;BME280;31495;42.740;22.908;2023-05-10T02:21:47;93174.84;;;9.32;81.14
45793;BME280;31495;42.740;22.908;2023-05-10T02:22:49;93199.25;;;9.23;80.55
45793;BME280;31495;42.740;22.908;2023-05-10T02:23:50;93194.69;;;9.31;80.79
45793;BME280;31495;42.740;22.908;2023-05-10T02:24:51;93218.31;;;9.55;80.70
45793;BME280;31495;42.740;22.908;2023-05-10T02:25:53;93185.34;;;9.30;80.41
45793;BME280;31495;42.740;22.908;2023-05-10T02:26:54;93203.81;;;9.27;80.59
45793;BME280;31495;42.740;22.908;2023-05-10T02:27:57;93218.53;;;9.40;81.33
45793;BME280;31495;42.740;22.908;2023-05-10T02:29:00;93217.50;;;9.41;81.14
45793;BME280;31495;42.740;22.908;2023-05-10T02:30:02;93185.56;;;9.15;81.10
45793;BME280;31495;42.740;22.908;2023-05-10T02:31:02;93204.41;;;9.29;81.00
45793;BME280;31495;42.740;22.908;2023-05-10T02:32:02;93189.31;;;9.19;81.15
45793;BME280;31495;42.740;22.908;2023-05-10T02:33:04;93193.69;;;9.19;81.36
45793;BME280;31495;42.740;22.908;2023-05-10T02:34:05;93149.25;;;8.97;81.10
45793;BME280;31495;42.740;22.908;2023-05-10T02:35:08;93216.53;;;9.42;81.22
45793;BME280;31495;42.740;22.908;2023-05-10T02:36:09;93201.84;;;9.16;80.97
45793;BME280;31495;42.740;22.908;2023-05-10T02:37:10;93225.28;;;9.21;81.60
45793;BME280;31495;42.740;22.908;2023-05-10T02:38:10;93209.78;;;9.08;82.02
45793;BME280;31495;42.740;22.908;2023-05-10T02:39:11;93227.06;;;9.20;81.84
45793;BME280;31495;42.740;22.908;2023-05-10T02:40:12;93199.84;;;9.05;81.57
45793;BME280;31495;42.740;22.908;2023-05-10T02:41:14;93178.22;;;9.06;81.43
45793;BME280;31495;42.740;22.908;2023-05-10T02:42:17;93201.44;;;9.06;81.76
45793;BME280;31495;42.740;22.908;2023-05-10T02:43:18;93208.81;;;9.15;81.98
45793;BME280;31495;42.740;22.908;2023-05-10T02:44:19;93187.75;;;9.05;81.82
45793;BME280;31495;42.740;22.908;2023-05-10T02:45:22;93158.38;;;8.86;81.65
45793;BME280;31495;42.740;22.908;2023-05-10T02:46:23;93184.38;;;9.11;81.41
45793;BME280;31495;42.740;22.908;2023-05-10T02:47:22;93186.56;;;9.08;81.53
45793;BME280;31495;42.740;22.908;2023-05-10T02:48:22;93171.25;;;9.06;81.67
45793;BME280;31495;42.740;22.908;2023-05-10T02:49:21;93197.69;;;9.22;81.79
45793;BME280;31495;42.740;22.908;2023-05-10T02:50:22;93192.50;;;9.08;82.07
45793;BME280;31495;42.740;22.908;2023-05-10T02:51:24;93211.19;;;9.30;81.71
45793;BME280;31495;42.740;22.908;2023-05-10T02:52:28;93180.22;;;9.10;81.41
45793;BME280;31495;42.740;22.908;2023-05-10T02:53:31;93202.44;;;9.25;81.63
45793;BME280;31495;42.740;22.908;2023-05-10T02:54:34;93174.63;;;9.07;81.33
45793;BME280;31495;42.740;22.908;2023-05-10T02:55:40;93223.50;;;9.28;81.52
45793;BME280;31495;42.740;22.908;2023-05-10T02:56:47;93181.78;;;9.05;81.88
45793;BME280;31495;42.740;22.908;2023-05-10T02:57:57;93217.91;;;9.18;81.50
45793;BME280;31495;42.740;22.908;2023-05-10T02:58:57;93180.63;;;9.00;81.17
45793;BME280;31495;42.740;22.908;2023-05-10T02:59:57;93176.25;;;8.94;80.95
45793;BME280;31495;42.740;22.908;2023-05-10T03:00:57;93194.09;;;9.09;81.26
45793;BME280;31495;42.740;22.908;2023-05-10T03:01:56;93203.25;;;9.18;81.04
45793;BME280;31495;42.740;22.908;2023-05-10T03:02:56;93190.53;;;9.17;80.99
45793;BME280;31495;42.740;22.908;2023-05-10T03:03:56;93189.31;;;9.13;80.90
45793;BME280;31495;42.740;22.908;2023-05-10T03:04:55;93193.72;;;9.06;80.95
45793;BME280;31495;42.740;22.908;2023-05-10T03:05:54;93183.78;;;9.02;81.04
45793;BME280;31495;42.740;22.908;2023-05-10T03:06:55;93187.75;;;8.98;81.24
45793;BME280;31495;42.740;22.908;2023-05-10T03:07:54;93162.31;;;8.82;81.01
45793;BME280;31495;42.740;22.908;2023-05-10T03:08:55;93181.19;;;8.96;80.77
45793;BME280;31495;42.740;22.908;2023-05-10T03:09:54;93205.41;;;9.01;80.82
45793;BME280;31495;42.740;22.908;2023-05-10T03:12:23;93217.34;;;9.02;80.93
45793;BME280;31495;42.740;22.908;2023-05-10T03:13:32;93217.91;;;9.05;81.33
45793;BME280;31495;42.740;22.908;2023-05-10T03:14:57;93208.00;;;8.95;81.82
45793;BME280;31495;42.740;22.908;2023-05-10T03:16:11;93216.75;;;9.00;81.53
45793;BME280;31495;42.740;22.908;2023-05-10T03:19:56;93213.34;;;9.07;81.22
45793;BME280;31495;42.740;22.908;2023-05-10T03:21:02;93215.72;;;9.01;81.05
45793;BME280;31495;42.740;22.908;2023-05-10T03:22:08;93177.22;;;8.80;81.51
45793;BME280;31495;42.740;22.908;2023-05-10T03:24:16;93179.00;;;8.79;81.15
45793;BME280;31495;42.740;22.908;2023-05-10T03:25:18;93202.44;;;8.91;81.14
45793;BME280;31495;42.740;22.908;2023-05-10T03:26:24;93187.13;;;8.70;81.04
45793;BME280;31495;42.740;22.908;2023-05-10T03:27:26;93226.88;;;8.95;80.31
45793;BME280;31495;42.740;22.908;2023-05-10T03:28:26;93199.06;;;8.71;80.29
45793;BME280;31495;42.740;22.908;2023-05-10T03:29:27;93133.88;;;8.35;79.64
45793;BME280;31495;42.740;22.908;2023-05-10T03:30:27;93191.91;;;8.66;79.78
45793;BME280;31495;42.740;22.908;2023-05-10T03:31:27;93158.31;;;8.46;79.76
45793;BME280;31495;42.740;22.908;2023-05-10T03:32:29;93168.41;;;8.41;79.80
45793;BME280;31495;42.740;22.908;2023-05-10T03:33:31;93200.41;;;8.67;79.41
45793;BME280;31495;42.740;22.908;2023-05-10T03:34:31;93230.22;;;8.82;78.92
45793;BME280;31495;42.740;22.908;2023-05-10T03:35:30;93231.78;;;8.83;78.86
45793;BME280;31495;42.740;22.908;2023-05-10T03:36:30;93209.16;;;8.72;78.79
45793;BME280;31495;42.740;22.908;2023-05-10T03:37:30;93195.06;;;8.68;78.06
45793;BME280;31495;42.740;22.908;2023-05-10T03:38:29;93208.94;;;8.67;78.02
45793;BME280;31495;42.740;22.908;2023-05-10T03:39:28;93195.66;;;8.63;77.84
45793;BME280;31495;42.740;22.908;2023-05-10T03:40:28;93205.00;;;8.71;77.83
45793;BME280;31495;42.740;22.908;2023-05-10T03:41:31;93145.56;;;8.24;77.57
45793;BME280;31495;42.740;22.908;2023-05-10T03:42:30;93134.66;;;8.22;77.61
45793;BME280;31495;42.740;22.908;2023-05-10T03:43:30;93207.56;;;8.64;77.57
45793;BME280;31495;42.740;22.908;2023-05-10T03:44:30;93207.97;;;8.61;77.91
45793;BME280;31495;42.740;22.908;2023-05-10T03:45:29;93226.22;;;8.80;77.62
45793;BME280;31495;42.740;22.908;2023-05-10T03:46:29;93203.19;;;8.65;77.52
45793;BME280;31495;42.740;22.908;2023-05-10T03:47:29;93210.16;;;8.78;77.28
45793;BME280;31495;42.740;22.908;2023-05-10T03:48:28;93180.38;;;8.55;77.11
45793;BME280;31495;42.740;22.908;2023-05-10T03:49:28;93184.09;;;8.46;76.80
45793;BME280;31495;42.740;22.908;2023-05-10T03:50:28;93202.22;;;8.59;77.36
45793;BME280;31495;42.740;22.908;2023-05-10T03:51:27;93221.25;;;8.72;77.50
45793;BME280;31495;42.740;22.908;2023-05-10T03:52:27;93238.53;;;8.78;77.35
45793;BME280;31495;42.740;22.908;2023-05-10T03:53:26;93203.38;;;8.57;77.36
45793;BME280;31495;42.740;22.908;2023-05-10T03:54:26;93216.28;;;8.63;77.45
45793;BME280;31495;42.740;22.908;2023-05-10T03:55:25;93217.28;;;8.62;77.26
45793;BME280;31495;42.740;22.908;2023-05-10T03:56:24;93205.53;;;8.46;77.38
45793;BME280;31495;42.740;22.908;2023-05-10T03:57:24;93233.75;;;8.68;78.06
45793;BME280;31495;42.740;22.908;2023-05-10T03:58:24;93209.31;;;8.51;78.26
45793;BME280;31495;42.740;22.908;2023-05-10T03:59:23;93214.09;;;8.54;77.73
45793;BME280;31495;42.740;22.908;2023-05-10T04:00:22;93197.00;;;8.46;77.80
45793;BME280;31495;42.740;22.908;2023-05-10T04:01:22;93220.25;;;8.59;78.11
45793;BME280;31495;42.740;22.908;2023-05-10T04:02:21;93214.09;;;8.67;78.01
45793;BME280;31495;42.740;22.908;2023-05-10T04:03:21;93196.44;;;8.57;77.97
45793;BME280;31495;42.740;22.908;2023-05-10T04:04:20;93200.81;;;8.63;77.36
45793;BME280;31495;42.740;22.908;2023-05-10T04:05:20;93186.25;;;8.42;76.74
45793;BME280;31495;42.740;22.908;2023-05-10T04:06:20;93210.53;;;8.61;76.77
45793;BME280;31495;42.740;22.908;2023-05-10T04:07:19;93194.63;;;8.44;76.60
45793;BME280;31495;42.740;22.908;2023-05-10T04:08:18;93218.66;;;8.52;77.17
45793;BME280;31495;42.740;22.908;2023-05-10T04:09:18;93202.69;;;8.28;77.56
45793;BME280;31495;42.740;22.908;2023-05-10T04:10:17;93223.72;;;8.32;77.55
45793;BME280;31495;42.740;22.908;2023-05-10T04:11:17;93185.19;;;8.10;77.87
45793;BME280;31495;42.740;22.908;2023-05-10T04:12:16;93209.81;;;8.26;77.57
45793;BME280;31495;42.740;22.908;2023-05-10T04:13:15;93209.63;;;8.27;77.28
45793;BME280;31495;42.740;22.908;2023-05-10T04:14:15;93221.22;;;8.45;77.04
45793;BME280;31495;42.740;22.908;2023-05-10T04:15:15;93246.41;;;8.50;77.16
45793;BME280;31495;42.740;22.908;2023-05-10T04:16:15;93211.03;;;8.30;77.09
45793;BME280;31495;42.740;22.908;2023-05-10T04:17:14;93240.25;;;8.51;77.36
45793;BME280;31495;42.740;22.908;2023-05-10T04:18:14;93222.13;;;8.37;77.08
45793;BME280;31495;42.740;22.908;2023-05-10T04:19:13;93190.50;;;8.02;78.53
45793;BME280;31495;42.740;22.908;2023-05-10T04:20:13;93223.88;;;8.23;78.71
45793;BME280;31495;42.740;22.908;2023-05-10T04:21:13;93236.41;;;8.26;78.46
45793;BME280;31495;42.740;22.908;2023-05-10T04:22:13;93235.78;;;8.31;78.58
45793;BME280;31495;42.740;22.908;2023-05-10T04:23:12;93244.75;;;8.42;78.69
45793;BME280;31495;42.740;22.908;2023-05-10T04:24:13;93242.75;;;8.37;78.05
45793;BME280;31495;42.740;22.908;2023-05-10T04:25:13;93254.94;;;8.50;78.16
45793;BME280;31495;42.740;22.908;2023-05-10T04:26:12;93263.28;;;8.59;77.81
45793;BME280;31495;42.740;22.908;2023-05-10T04:27:12;93219.53;;;8.31;77.44
45793;BME280;31495;42.740;22.908;2023-05-10T04:28:11;93235.28;;;8.49;77.88
45793;BME280;31495;42.740;22.908;2023-05-10T04:29:11;93196.72;;;8.27;77.76
45793;BME280;31495;42.740;22.908;2023-05-10T04:30:10;93214.81;;;8.41;77.64
45793;BME280;31495;42.740;22.908;2023-05-10T04:31:10;93193.00;;;8.37;77.17
45793;BME280;31495;42.740;22.908;2023-05-10T04:32:09;93253.66;;;8.88;76.66
45793;BME280;31495;42.740;22.908;2023-05-10T04:33:09;93243.09;;;8.76;76.73
45793;BME280;31495;42.740;22.908;2023-05-10T04:34:08;93250.03;;;8.82;76.32
45793;BME280;31495;42.740;22.908;2023-05-10T04:35:08;93229.41;;;8.75;76.40
45793;BME280;31495;42.740;22.908;2023-05-10T04:36:09;93260.63;;;9.00;76.20
45793;BME280;31495;42.740;22.908;2023-05-10T04:37:08;93233.56;;;8.76;75.46
45793;BME280;31495;42.740;22.908;2023-05-10T04:38:08;93173.75;;;8.39;76.19
45793;BME280;31495;42.740;22.908;2023-05-10T04:39:07;93223.81;;;8.65;75.62
45793;BME280;31495;42.740;22.908;2023-05-10T04:40:09;93200.34;;;8.40;76.07
45793;BME280;31495;42.740;22.908;2023-05-10T04:41:10;93265.09;;;8.72;76.30
45793;BME280;31495;42.740;22.908;2023-05-10T04:42:09;93231.53;;;8.45;76.98
45793;BME280;31495;42.740;22.908;2023-05-10T04:43:09;93232.44;;;8.37;77.40
45793;BME280;31495;42.740;22.908;2023-05-10T04:44:09;93207.38;;;8.11;76.73
45793;BME280;31495;42.740;22.908;2023-05-10T04:45:08;93265.25;;;8.50;76.92
45793;BME280;31495;42.740;22.908;2023-05-10T04:46:09;93246.41;;;8.43;76.81
45793;BME280;31495;42.740;22.908;2023-05-10T04:47:08;93263.28;;;8.59;76.76
45793;BME280;31495;42.740;22.908;2023-05-10T04:48:07;93247.00;;;8.45;76.83
45793;BME280;31495;42.740;22.908;2023-05-10T04:49:07;93178.63;;;8.07;77.63
45793;BME280;31495;42.740;22.908;2023-05-10T04:50:07;93257.72;;;8.55;77.95
45793;BME280;31495;42.740;22.908;2023-05-10T04:51:06;93229.91;;;8.44;77.83
45793;BME280;31495;42.740;22.908;2023-05-10T04:52:06;93262.50;;;8.58;77.12
45793;BME280;31495;42.740;22.908;2023-05-10T04:53:05;93233.19;;;8.24;76.57
45793;BME280;31495;42.740;22.908;2023-05-10T04:54:05;93274.09;;;8.41;77.52
45793;BME280;31495;42.740;22.908;2023-05-10T04:55:04;93200.91;;;7.87;77.69
45793;BME280;31495;42.740;22.908;2023-05-10T04:56:06;93252.25;;;8.23;77.68
45793;BME280;31495;42.740;22.908;2023-05-10T04:57:06;93243.31;;;8.26;77.46
45793;BME280;31495;42.740;22.908;2023-05-10T04:58:05;93249.44;;;8.18;77.43
45793;BME280;31495;42.740;22.908;2023-05-10T04:59:05;93237.53;;;8.17;77.86
45793;BME280;31495;42.740;22.908;2023-05-10T05:00:05;93212.50;;;8.04;77.75
45793;BME280;31495;42.740;22.908;2023-05-10T05:01:08;93255.41;;;8.25;77.54
45793;BME280;31495;42.740;22.908;2023-05-10T05:02:09;93190.03;;;7.85;77.24
45793;BME280;31495;42.740;22.908;2023-05-10T05:03:08;93290.59;;;8.40;77.55
45793;BME280;31495;42.740;22.908;2023-05-10T05:04:07;93233.56;;;8.15;77.86
45793;BME280;31495;42.740;22.908;2023-05-10T05:05:07;93220.63;;;8.01;78.03
45793;BME280;31495;42.740;22.908;2023-05-10T05:06:07;93258.75;;;8.19;78.61
45793;BME280;31495;42.740;22.908;2023-05-10T05:07:06;93249.03;;;8.21;78.54
45793;BME280;31495;42.740;22.908;2023-05-10T05:08:06;93247.09;;;8.23;77.73
45793;BME280;31495;42.740;22.908;2023-05-10T05:09:05;93248.66;;;8.24;77.39
45793;BME280;31495;42.740;22.908;2023-05-10T05:10:08;93273.69;;;8.37;78.09
45793;BME280;31495;42.740;22.908;2023-05-10T05:11:08;93256.00;;;8.21;78.47
45793;BME280;31495;42.740;22.908;2023-05-10T05:12:07;93251.63;;;8.21;78.03
45793;BME280;31495;42.740;22.908;2023-05-10T05:13:07;93245.50;;;8.22;77.87
45793;BME280;31495;42.740;22.908;2023-05-10T05:14:06;93251.88;;;8.26;77.65
45793;BME280;31495;42.740;22.908;2023-05-10T05:15:06;93249.28;;;8.26;77.88
45793;BME280;31495;42.740;22.908;2023-05-10T05:16:07;93238.34;;;8.24;77.92
45793;BME280;31495;42.740;22.908;2023-05-10T05:17:07;93204.00;;;8.10;77.11
45793;BME280;31495;42.740;22.908;2023-05-10T05:18:06;93253.97;;;8.51;76.99
45793;BME280;31495;42.740;22.908;2023-05-10T05:19:06;93243.63;;;8.44;77.09
45793;BME280;31495;42.740;22.908;2023-05-10T05:20:06;93246.44;;;8.56;77.22
45793;BME280;31495;42.740;22.908;2023-05-10T05:21:16;93280.41;;;8.73;76.56
45793;BME280;31495;42.740;22.908;2023-05-10T05:22:16;93239.81;;;8.40;76.18
45793;BME280;31495;42.740;22.908;2023-05-10T05:23:16;93254.16;;;8.50;76.09
45793;BME280;31495;42.740;22.908;2023-05-10T05:24:17;93241.41;;;8.41;76.79
45793;BME280;31495;42.740;22.908;2023-05-10T05:25:16;93256.44;;;8.38;76.71
45793;BME280;31495;42.740;22.908;2023-05-10T05:26:16;93215.09;;;8.11;76.96
45793;BME280;31495;42.740;22.908;2023-05-10T05:27:15;93213.94;;;8.14;77.06
45793;BME280;31495;42.740;22.908;2023-05-10T05:28:15;93262.66;;;8.43;76.72
45793;BME280;31495;42.740;22.908;2023-05-10T05:29:15;93246.13;;;8.38;76.62
45793;BME280;31495;42.740;22.908;2023-05-10T05:30:14;93240.75;;;8.33;77.05
45793;BME280;31495;42.740;22.908;2023-05-10T05:31:13;93255.50;;;8.45;76.88
45793;BME280;31495;42.740;22.908;2023-05-10T05:32:13;93288.69;;;8.62;77.39
45793;BME280;31495;42.740;22.908;2023-05-10T05:33:15;93248.47;;;8.26;77.38
45793;BME280;31495;42.740;22.908;2023-05-10T05:34:15;93250.44;;;8.24;77.73
45793;BME280;31495;42.740;22.908;2023-05-10T05:35:14;93268.13;;;8.27;77.14
45793;BME280;31495;42.740;22.908;2023-05-10T05:36:13;93244.22;;;8.05;76.82
45793;BME280;31495;42.740;22.908;2023-05-10T05:37:17;93288.56;;;8.35;77.21
45793;BME280;31495;42.740;22.908;2023-05-10T05:38:16;93242.22;;;8.00;77.64
45793;BME280;31495;42.740;22.908;2023-05-10T05:39:17;93288.94;;;8.32;77.07
45793;BME280;31495;42.740;22.908;2023-05-10T05:40:16;93294.72;;;8.34;77.04
45793;BME280;31495;42.740;22.908;2023-05-10T05:41:15;93256.91;;;8.06;76.99
45793;BME280;31495;42.740;22.908;2023-05-10T05:42:15;93299.25;;;8.25;77.99
45793;BME280;31495;42.740;22.908;2023-05-10T05:43:16;93267.56;;;7.97;77.55